Terminal Aerodrome Forecast
Issued by NWS Jackson, MS

Current Version | Previous Version | Text Only | Print | Product List | Glossary On
Versions: 1 2 3 4 5 6 7 8 9 10 11 12 13 14 15 16 17 18 19 20 21 22
000
FTUS44 KJAN 011700
TAFMEI
TAF
KMEI 011736Z 0118/0218 18009KT P6SM SCT050
     FM020000 18004KT P6SM FEW060
     FM021000 18004KT 4SM BR FEW015
     FM021400 20006KT P6SM SCT030=

USA.gov is the U.S. government's official web portal to all federal, state and local government web resources and services.